Latest Weather Observations for Camden

IDN60801

Issued at 9:13 pm EST Friday 8 May 2026 (issued every 10 minutes, with the page automatically refreshed every 10 minutes)

About weather observations | Map of weather stations | Latest weather observations for NSW | Other Formats
Station Details ID: 068192 Name: CAMDEN AIRPORT AWS Lat: -34.04 Lon: 150.69 Height: 73.9 m
Data from the previous 72 hours. | See also: Recent months at Camden
Date/Time
EST
Temp
°C
App
Temp
°C
Dew
Point
°C
Rel
Hum
%
Delta-T
°C
Wind Press
QNH
hPa
Press
MSL
hPa
Rain since
9am
mm
Dir  Spd
km/h
Gust
km/h
Spd
kts
Gust
kts
08/09:00pm 11.5 10.5 5.8 68 2.6 CALM 0 0 0 0 1021.8 1021.8 0.0
08/08:30pm 11.5 10.7 6.6 72 2.3 CALM 0 0 0 0 1021.5 1021.5 0.0
08/08:00pm 12.6 10.3 5.8 63 3.2 S 7 11 4 6 1021.2 1021.2 0.0
08/07:30pm 13.6 11.4 6.0 60 3.6 SE 7 11 4 6 1020.7 1020.7 0.0
08/07:00pm 14.2 11.5 5.8 57 4.0 SW 9 15 5 8 1020.4 1020.4 0.0
08/06:30pm 14.6 11.2 5.9 56 4.2 SW 13 17 7 9 1020.0 1020.0 0.0
08/06:00pm 14.9 11.9 6.0 55 4.3 SSW 11 17 6 9 1019.6 1019.6 0.0
08/05:30pm 15.6 10.8 5.5 51 4.8 SW 20 28 11 15 1019.0 1019.0 0.0
08/05:00pm 16.4 10.4 5.4 48 5.3 WSW 26 43 14 23 1018.4 1018.4 0.0
08/04:30pm 17.1 13.2 5.4 46 5.7 WSW 15 24 8 13 1017.8 1017.7 0.0
08/04:00pm 18.3 11.9 5.2 42 6.3 WSW 28 39 15 21 1017.2 1017.1 0.0
08/03:30pm 18.7 12.6 4.8 40 6.7 WSW 26 37 14 20 1017.0 1016.9 0.0
08/03:00pm 18.8 12.3 4.6 39 6.8 WSW 28 39 15 21 1016.6 1016.5 0.0
08/02:30pm 18.8 11.5 4.6 39 6.8 WSW 32 43 17 23 1016.1 1016.0 0.0
08/02:00pm 19.2 13.1 4.6 38 7.0 W 26 37 14 20 1016.2 1016.1 0.0
08/01:39pm 19.7 12.8 4.6 37 7.3 WSW 30 48 16 26 1016.1 1016.0 0.0
08/01:30pm 19.0 11.5 3.6 36 7.3 WSW 32 44 17 24 1016.3 1016.2 0.0
08/01:00pm 19.2 13.1 4.6 38 7.0 WSW 26 39 14 21 1016.6 1016.5 0.0
08/12:30pm 19.4 13.3 4.7 38 7.1 WSW 26 39 14 21 1016.9 1016.8 0.0
08/12:00pm 18.9 13.5 4.7 39 6.8 WSW 22 35 12 19 1017.3 1017.2 0.0
08/11:30am 18.3 13.3 4.5 40 6.6 W 20 33 11 18 1017.7 1017.6 0.0
08/11:00am 17.4 11.9 4.0 41 6.3 WSW 22 30 12 16 1018.2 1018.1 0.0
08/10:30am 17.4 10.9 4.7 43 6.1 W 28 39 15 21 1018.4 1018.4 0.0
08/10:00am 16.7 11.7 4.7 45 5.7 WSW 20 35 11 19 1018.6 1018.6 0.0
08/09:30am 15.6 10.2 4.3 47 5.3 WSW 22 33 12 18 1018.5 1018.5 0.0
08/09:00am 15.0 9.9 4.1 48 5.0 WSW 20 30 11 16 1018.4 1018.4 0.0
08/08:30am 13.8 9.6 3.9 51 4.5 WSW 15 24 8 13 1018.4 1018.4 0.0
08/08:00am 12.9 9.1 3.8 54 4.1 W 13 20 7 11 1018.3 1018.2 0.0
08/07:30am 11.5 7.3 3.8 59 3.4 WSW 15 22 8 12 1018.0 1017.9 0.0
08/07:00am 10.2 5.9 3.3 62 3.0 W 15 20 8 11 1018.0 1017.9 0.0
08/06:30am 10.1 6.1 2.9 61 3.1 WSW 13 19 7 10 1018.2 1018.1 0.0
08/06:00am 10.0 5.5 2.4 59 3.2 WSW 15 20 8 11 1018.0 1017.9 0.0
08/05:30am 9.9 6.1 2.0 58 3.3 WSW 11 20 6 11 1017.9 1017.8 0.0
08/05:00am 10.3 6.2 2.2 57 3.4 W 13 28 7 15 1017.9 1017.8 0.0
08/04:30am 9.5 5.8 2.1 60 3.1 W 11 15 6 8 1017.9 1017.8 0.0
08/04:00am 9.6 5.8 1.8 58 3.3 WSW 11 20 6 11 1017.8 1017.7 0.0
08/03:30am 9.7 5.5 1.8 58 3.3 WSW 13 24 7 13 1017.9 1017.8 0.0
08/03:00am 9.8 4.9 1.7 57 3.4 WSW 17 28 9 15 1018.5 1018.5 0.0
08/02:30am 9.4 5.2 1.8 59 3.2 WSW 13 19 7 10 1018.6 1018.6 0.0
08/02:00am 9.8 5.6 1.5 56 3.4 WSW 13 20 7 11 1018.7 1018.7 0.0
08/01:30am 10.0 4.4 1.1 54 3.7 WSW 20 30 11 16 1018.8 1018.8 0.0
08/01:00am 10.0 4.4 0.9 53 3.7 WSW 20 32 11 17 1019.2 1019.2 0.0
08/12:30am 10.1 3.7 0.7 52 3.9 WSW 24 35 13 19 1019.3 1019.3 0.0
08/12:00am 9.8 3.7 0.2 51 3.9 WSW 22 37 12 20 1019.5 1019.5 0.0
 
Date/Time
EST
Temp
°C
App
Temp
°C
Dew
Point
°C
Rel
Hum
%
Delta-T
°C
Wind Press
QNH
hPa
Press
MSL
hPa
Rain since
9am
mm
Dir  Spd
km/h
Gust
km/h
Spd
kts
Gust
kts
07/11:30pm 9.4 4.6 0.1 52 3.7 WSW 15 22 8 12 1019.5 1019.5 0.0
07/11:00pm 9.2 5.8 -0.4 51 3.8 W 7 13 4 7 1019.5 1019.5 0.0
07/10:30pm 9.8 6.0 -0.4 49 4.1 WSW 9 13 5 7 1019.5 1019.5 0.0
07/10:00pm 10.1 5.6 -0.1 49 4.1 W 13 20 7 11 1019.8 1019.8 0.0
07/09:30pm 9.6 4.8 0.0 51 3.9 W 15 20 8 11 1019.7 1019.7 0.0
07/09:00pm 10.3 5.1 -0.2 48 4.2 WSW 17 28 9 15 1019.3 1019.3 0.0
07/08:30pm 10.4 5.1 -0.4 47 4.3 W 17 26 9 14 1019.2 1019.2 0.0
07/08:00pm 10.9 5.2 -0.9 44 4.7 W 19 33 10 18 1019.1 1019.1 0.0
07/07:30pm 11.2 4.1 -0.9 43 4.8 WSW 26 41 14 22 1018.7 1018.7 0.0
07/07:00pm 11.0 4.7 -1.1 43 4.8 W 22 33 12 18 1018.6 1018.6 0.0
07/06:30pm 11.2 6.2 -1.2 42 4.9 W 15 22 8 12 1018.1 1018.0 0.0
07/06:00pm 11.5 5.7 -1.3 41 5.1 W 19 30 10 16 1017.6 1017.5 0.0
07/05:30pm 11.9 5.9 -1.6 39 5.4 WSW 20 35 11 19 1017.1 1017.0 0.0
07/05:00pm 12.6 5.1 -1.7 37 5.7 WSW 28 39 15 21 1016.8 1016.7 0.0
07/04:30pm 13.4 5.5 -1.7 35 6.1 WSW 30 43 16 23 1016.4 1016.3 0.0
07/04:00pm 14.1 6.2 -1.9 33 6.4 W 30 44 16 24 1016.1 1016.0 0.0
07/03:30pm 14.6 6.1 -1.9 32 6.7 WSW 33 52 18 28 1016.0 1015.9 0.0
07/03:18pm 14.6 6.0 -2.3 31 6.8 WSW 33 52 18 28 1016.0 1015.9 0.0
07/03:00pm 14.9 6.3 -2.5 30 7.0 WSW 33 46 18 25 1015.9 1015.8 0.0
07/02:50pm 15.2 7.6 -2.2 30 7.0 WSW 28 48 15 26 1015.6 1015.5 0.0
07/02:30pm 14.9 6.9 -2.5 30 7.0 WSW 30 41 16 22 1015.3 1015.3 0.0
07/02:00pm 15.4 6.7 -3.5 27 7.4 WSW 33 54 18 29 1015.0 1015.0 0.0
07/01:59pm 15.6 7.1 -3.3 27 7.5 WSW 32 54 17 29 1015.0 1015.0 0.0
07/01:30pm 16.3 7.9 -2.7 27 7.7 WSW 32 43 17 23 1014.7 1014.7 0.0
07/01:14pm 16.2 7.3 -2.3 28 7.5 WSW 35 54 19 29 1014.6 1014.6 0.0
07/01:03pm 15.8 7.1 -3.1 27 7.5 W 33 54 18 29 1014.5 1014.5 0.0
07/01:00pm 15.8 7.4 -2.2 29 7.3 W 32 43 17 23 1014.5 1014.5 0.0
07/12:30pm 16.1 8.3 -3.9 25 7.9 WSW 28 44 15 24 1014.6 1014.6 0.0
07/12:10pm 15.8 7.7 -3.1 27 7.5 W 30 48 16 26 1014.8 1014.8 0.0
07/12:00pm 15.8 8.1 -2.6 28 7.4 WSW 28 44 15 24 1014.8 1014.8 0.0
07/11:44am 15.9 7.8 -3.0 27 7.6 W 30 48 16 26 1015.1 1015.1 0.0
07/11:30am 15.8 6.3 -3.6 26 7.7 WSW 37 54 20 29 1015.2 1015.2 0.0
07/11:23am 15.7 6.5 -4.2 25 7.8 W 35 54 19 29 1015.3 1015.3 0.0
07/11:00am 15.9 7.4 -3.6 26 7.7 W 32 46 17 25 1015.1 1015.1 0.0
07/10:35am 14.5 6.5 0.7 39 5.9 WSW 32 50 17 27 1015.1 1015.1 0.0
07/10:30am 13.6 5.7 1.3 43 5.3 W 32 43 17 23 1015.1 1015.1 0.0
07/10:00am 14.2 6.1 3.4 48 4.9 WSW 35 57 19 31 1014.8 1014.8 0.0
07/09:55am 14.3 6.2 3.5 48 4.9 WSW 35 56 19 30 1014.9 1014.9 0.0
07/09:41am 15.2 8.5 5.4 52 4.7 WSW 30 43 16 23 1014.3 1014.3 0.0
07/09:30am 15.7 11.6 6.4 54 4.5 SW 17 24 9 13 1014.1 1014.1 0.0
07/09:00am 16.5 12.6 7.2 54 4.6 WSW 17 24 9 13 1013.7 1013.7 0.0
07/08:30am 14.9 13.1 7.2 60 3.8 W 6 11 3 6 1013.8 1013.8 0.0
07/08:00am 12.6 11.3 7.7 72 2.4 WNW 4 7 2 4 1013.6 1013.6 0.0
07/07:30am 10.8 8.8 6.9 77 1.9 N 7 11 4 6 1013.2 1013.2 0.0
07/07:00am 10.2 7.7 5.0 70 2.4 W 7 15 4 8 1013.1 1013.1 0.0
07/06:30am 12.5 9.8 5.7 63 3.2 WNW 9 24 5 13 1012.9 1012.9 0.0
07/06:00am 10.6 8.1 4.9 68 2.6 ENE 7 11 4 6 1012.8 1012.8 0.0
07/05:30am 11.8 8.9 4.8 62 3.2 WNW 9 13 5 7 1013.0 1013.0 0.0
07/05:00am 11.2 8.7 4.9 65 2.9 W 7 11 4 6 1013.3 1013.3 0.0
07/04:30am 11.2 7.4 5.7 69 2.6 WSW 15 20 8 11 1013.3 1013.3 0.0
07/04:00am 10.6 7.2 7.5 81 1.5 WSW 15 22 8 12 1013.1 1013.1 0.0
07/03:30am 8.0 6.4 7.9 99 0.0 WNW 6 9 3 5 1013.5 1013.5 0.0
07/03:02am 7.4 6.4 7.3 99 0.0 SSW 2 6 1 3 1013.7 1013.7 0.0
07/03:00am 7.6 6.3 7.5 99 0.0 SSW 4 7 2 4 1013.7 1013.7 0.0
07/02:44am 7.3 5.5 7.2 99 0.0 SW 6 7 3 4 1013.9 1013.9 0.0
07/02:30am 7.6 6.6 7.5 99 0.0 NNE 2 7 1 4 1013.8 1013.8 0.0
07/02:00am 7.9 7.4 7.8 99 0.0 CALM 0 0 0 0 1014.2 1014.2 0.0
07/01:30am 9.1 8.9 9.0 99 0.0 CALM 0 4 0 2 1014.4 1014.4 0.0
07/01:00am 8.9 8.6 8.8 99 0.0 CALM 0 0 0 0 1014.6 1014.6 0.0
07/12:30am 9.6 8.2 9.5 99 0.0 SSE 7 7 4 4 1014.6 1014.6 0.0
07/12:02am 9.5 9.0 9.4 99 0.0 N 2 6 1 3 1014.8 1014.8 0.0
07/12:00am 9.3 8.8 9.2 99 0.0 NNW 2 6 1 3 1014.7 1014.7 0.0
 
Date/Time
EST
Temp
°C
App
Temp
°C
Dew
Point
°C
Rel
Hum
%
Delta-T
°C
Wind Press
QNH
hPa
Press
MSL
hPa
Rain since
9am
mm
Dir  Spd
km/h
Gust
km/h
Spd
kts
Gust
kts
06/11:42pm 9.7 9.6 9.6 99 0.1 CALM 0 0 0 0 1014.9 1014.9 0.0
06/11:36pm 9.8 9.8 9.7 99 0.1 CALM 0 0 0 0 1014.8 1014.8 0.0
06/11:30pm 9.7 9.6 9.6 99 0.1 CALM 0 0 0 0 1014.9 1014.9 0.0
06/11:15pm 9.5 9.4 9.4 99 0.0 CALM 0 0 0 0 1014.9 1014.9 0.0
06/11:00pm 10.1 10.2 10.0 99 0.1 CALM 0 0 0 0 1014.9 1014.9 0.0
06/10:57pm 10.3 10.4 10.1 99 0.1 CALM 0 0 0 0 1014.9 1014.9 0.0
06/10:47pm 11.0 11.3 10.8 99 0.1 CALM 0 0 0 0 1015.1 1015.1 0.0
06/10:32pm 11.1 11.4 10.9 99 0.1 CALM 0 0 0 0 1015.5 1015.4 0.0
06/10:30pm 11.1 11.4 10.9 99 0.1 CALM 0 0 0 0 1015.5 1015.4 0.0
06/10:19pm 10.9 11.1 10.7 99 0.1 CALM 0 0 0 0 1015.7 1015.6 0.0
06/10:15pm 10.8 11.0 10.6 99 0.1 CALM 0 6 0 3 1015.8 1015.7 0.0
06/10:00pm 11.0 10.1 10.7 98 0.2 NW 6 6 3 3 1015.9 1015.8 0.0
06/09:30pm 11.1 10.9 10.5 96 0.3 NW 2 6 1 3 1016.1 1016.0 0.0
06/09:00pm 11.9 11.2 11.4 97 0.3 N 6 7 3 4 1016.2 1016.1 0.0
06/08:30pm 12.1 12.4 10.8 92 0.7 CALM 0 0 0 0 1016.4 1016.3 0.0
06/08:00pm 13.0 13.3 10.9 87 1.1 CALM 0 0 0 0 1016.2 1016.1 0.0
06/07:30pm 14.0 14.4 11.3 84 1.4 CALM 0 0 0 0 1016.2 1016.1 0.0
06/07:00pm 14.1 14.5 11.1 82 1.6 CALM 0 0 0 0 1016.2 1016.1 0.0
06/06:46pm 14.1 14.5 11.1 82 1.6 CALM 0 0 0 0 1016.2 1016.1 0.0
06/06:30pm 14.7 14.9 10.5 76 2.2 CALM 0 6 0 3 1016.1 1016.0 0.0
06/06:27pm 14.8 14.6 10.4 75 2.3 E 2 7 1 4 1016.1 1016.0 0.0
06/06:00pm 16.2 16.3 10.1 67 3.2 CALM 0 0 0 0 1016.0 1015.9 0.0
06/05:30pm 18.1 17.1 10.2 60 4.2 N 6 6 3 3 1015.8 1015.7 0.0
06/05:00pm 19.3 17.6 10.0 55 5.0 NNE 9 13 5 7 1015.7 1015.6 0.0
06/04:30pm 21.1 18.7 10.0 49 6.0 N 13 19 7 10 1015.6 1015.5 0.0
06/04:00pm 21.8 19.3 9.7 46 6.5 NNE 13 20 7 11 1015.9 1015.8 0.0
06/03:30pm 22.2 19.3 9.7 45 6.8 N 15 19 8 10 1016.1 1016.0 0.0
06/03:00pm 22.4 19.9 9.6 44 6.9 N 13 22 7 12 1016.4 1016.3 0.0
06/02:30pm 22.7 19.3 9.1 42 7.3 N 17 22 9 12 1016.7 1016.6 0.0
06/02:00pm 22.7 19.7 10.5 46 6.7 NE 17 22 9 12 1016.9 1016.8 0.0
06/01:30pm 22.6 19.8 10.1 45 6.8 N 15 20 8 11 1017.4 1017.3 0.0
06/01:00pm 21.6 19.6 10.1 48 6.2 NNE 11 17 6 9 1017.9 1017.8 0.0
06/12:30pm 21.4 20.1 9.9 48 6.2 N 7 13 4 7 1018.5 1018.5 0.0
06/12:00pm 21.8 19.8 10.0 47 6.4 NW 11 20 6 11 1019.0 1019.0 0.0
06/11:30am 21.4 20.3 9.9 48 6.2 NNE 6 11 3 6 1019.7 1019.7 0.0
06/11:00am 21.1 20.9 10.6 51 5.7 NNE 2 7 1 4 1020.1 1020.1 0.0
06/10:30am 19.5 18.6 10.5 56 4.9 NNW 6 9 3 5 1020.4 1020.4 0.0
06/10:00am 17.1 16.5 10.5 65 3.5 SW 4 6 2 3 1020.8 1020.8 0.0
06/09:30am 15.2 14.4 9.6 69 2.9 SSE 4 7 2 4 1021.0 1021.0 0.0
06/09:00am 13.8 13.4 9.8 77 2.1 ESE 2 7 1 4 1021.1 1021.1 0.2
06/08:30am 12.0 10.8 10.4 90 0.8 SE 7 7 4 4 1021.2 1021.2 0.2
06/08:00am 9.9 9.5 9.8 99 0.1 SE 2 7 1 4 1021.1 1021.1 0.2
06/07:30am 7.7 7.1 7.6 99 0.0 CALM 0 0 0 0 1021.1 1021.1 0.2
06/07:00am 6.5 5.7 6.4 99 0.0 CALM 0 0 0 0 1021.0 1021.0 0.2
06/06:30am 6.4 5.6 6.3 99 0.0 CALM 0 0 0 0 1021.0 1021.0 0.2
06/06:00am 6.4 5.6 6.3 99 0.0 CALM 0 0 0 0 1020.7 1020.7 0.2
06/05:30am 6.2 5.3 6.1 99 0.0 CALM 0 0 0 0 1020.7 1020.7 0.2
06/05:00am 5.9 4.2 5.8 99 0.0 SE 4 7 2 4 1020.7 1020.7 0.2
06/04:34am 6.8 6.0 6.7 99 0.0 CALM 0 6 0 3 1020.6 1020.6 0.2
06/04:30am 6.9 5.8 6.8 99 0.0 SE 2 7 1 4 1020.6 1020.6 0.2
06/04:15am 6.7 5.9 6.6 99 0.0 CALM 0 0 0 0 1020.5 1020.5 0.2
06/04:00am 7.0 6.3 6.9 99 0.0 CALM 0 0 0 0 1020.5 1020.5 0.2
06/03:30am 7.5 5.8 7.4 99 0.0 SE 6 7 3 4 1020.6 1020.6 0.2
06/03:00am 7.4 6.8 7.3 99 0.0 CALM 0 0 0 0 1020.8 1020.8 0.2
06/02:30am 7.6 6.3 7.5 99 0.0 NNW 4 6 2 3 1020.9 1020.9 0.2
06/02:00am 7.4 6.8 7.3 99 0.0 CALM 0 0 0 0 1021.1 1021.1 0.2
06/01:30am 7.9 7.0 7.8 99 0.0 N 2 6 1 3 1021.4 1021.4 0.2
06/01:00am 8.1 7.6 8.0 99 0.0 CALM 0 0 0 0 1021.6 1021.6 0.2
06/12:30am 8.3 7.8 7.9 97 0.2 CALM 0 0 0 0 1021.6 1021.6 0.2
06/12:00am 8.8 8.4 8.2 96 0.3 CALM 0 0 0 0 1021.6 1021.6 0.2
 
Date/Time
EST
Temp
°C
App
Temp
°C
Dew
Point
°C
Rel
Hum
%
Delta-T
°C
Wind Press
QNH
hPa
Press
MSL
hPa
Rain since
9am
mm
Dir  Spd
km/h
Gust
km/h
Spd
kts
Gust
kts
05/11:30pm 9.1 8.8 8.5 96 0.3 CALM 0 0 0 0 1021.6 1021.6 0.2
05/11:00pm 9.1 8.6 7.7 91 0.7 CALM 0 4 0 2 1021.6 1021.6 0.2
05/10:30pm 9.3 8.1 8.1 92 0.6 E 4 7 2 4 1021.7 1021.7 0.2
05/10:00pm 9.9 9.6 8.5 91 0.7 CALM 0 0 0 0 1021.8 1021.8 0.2
05/09:30pm 10.6 10.1 8.0 84 1.3 CALM 0 0 0 0 1021.7 1021.7 0.2

Other formats

Comma delimited format used in spreadsheet applications
http://www.bom.gov.au/fwo/IDN60801/IDN60801.94755.axf

JavaScript Object Notation format (JSON) in row-major order
http://www.bom.gov.au/fwo/IDN60801/IDN60801.94755.json

Data quality

Most of these data are generated automatically and are frequently updated. Quality checks on data are not normally performed. It is possible for incorrect values to appear. Refer to information at About Latest Weather Observations and please check the disclaimer before using these data.